createdAt,value
2022-09-05T00:03:32.854Z,15.40
2022-09-05T00:08:51.798Z,14.50
2022-09-05T00:14:07.602Z,17.80
2022-09-05T00:24:21.240Z,19.20
2022-09-05T00:25:21.190Z,17.50
2022-09-05T00:31:06.671Z,14.25
2022-09-05T00:36:01.067Z,16.00
2022-09-05T00:41:09.470Z,15.75
2022-09-05T00:46:17.627Z,16.00
2022-09-05T00:51:34.632Z,18.40
2022-09-05T00:57:01.626Z,16.80
2022-09-05T01:02:15.323Z,17.00
2022-09-05T01:07:34.325Z,14.80
2022-09-05T01:12:58.938Z,18.00
2022-09-05T01:18:26.359Z,19.20
2022-09-05T01:23:59.290Z,16.80
2022-09-05T01:29:15.939Z,17.80
2022-09-05T01:34:31.173Z,15.00
2022-09-05T01:40:11.130Z,17.00
2022-09-05T01:45:20.263Z,14.75
2022-09-05T01:50:40.971Z,16.25
2022-09-05T01:56:13.576Z,18.40
2022-09-05T02:01:33.060Z,16.40
2022-09-05T02:06:44.100Z,18.00
2022-09-05T02:11:53.888Z,17.40
2022-09-05T02:17:46.334Z,15.00
2022-09-05T02:22:43.833Z,17.80
2022-09-05T02:28:05.569Z,17.00
2022-09-05T02:33:21.586Z,16.40
2022-09-05T02:39:33.565Z,18.00
2022-09-05T02:45:09.522Z,15.50
2022-09-05T02:51:12.771Z,17.50
2022-09-05T02:57:41.148Z,13.60
2022-09-05T03:00:42.250Z,15.75
2022-09-05T03:05:53.032Z,18.40
2022-09-05T03:11:44.398Z,14.50
2022-09-05T03:17:22.282Z,17.50
2022-09-05T03:23:01.776Z,19.00
2022-09-05T03:28:46.124Z,16.00
2022-09-05T03:34:14.081Z,14.50
2022-09-05T03:39:41.031Z,15.50
2022-09-05T03:44:59.762Z,15.40
2022-09-05T03:57:08.369Z,17.75
2022-09-05T03:57:27.376Z,20.20
2022-09-05T04:06:28.745Z,16.60
2022-09-05T04:08:16.626Z,18.80
2022-09-05T04:12:35.441Z,16.00
2022-09-05T04:17:45.731Z,15.50
2022-09-05T04:23:13.464Z,17.50
2022-09-05T04:28:36.101Z,14.50
2022-09-05T04:34:00.952Z,14.75
2022-09-05T04:39:24.588Z,19.50
2022-09-05T04:44:34.208Z,16.50
2022-09-05T04:49:42.265Z,16.75
2022-09-05T04:54:49.922Z,13.00
2022-09-05T05:03:16.290Z,14.75
2022-09-05T05:06:09.091Z,13.75
2022-09-05T05:17:54.143Z,15.75
2022-09-05T05:18:09.412Z,18.00
2022-09-05T05:21:48.621Z,14.40
2022-09-05T05:26:57.302Z,14.00
2022-09-05T05:32:03.902Z,13.00
2022-09-05T05:37:16.929Z,14.75
2022-09-05T05:42:24.358Z,15.75
2022-09-05T05:47:35.629Z,16.60
2022-09-05T05:53:36.311Z,17.50
2022-09-05T05:59:09.772Z,14.75
2022-09-05T06:04:48.705Z,14.50
2022-09-05T06:14:51.565Z,18.50
2022-09-05T06:16:12.026Z,18.25
2022-09-05T06:22:09.974Z,21.00
2022-09-05T06:27:25.967Z,23.00
2022-09-05T06:32:43.154Z,20.00
2022-09-05T06:38:12.240Z,18.20
2022-09-05T06:43:31.604Z,23.40
2022-09-05T06:49:28.523Z,20.40
2022-09-05T06:54:47.293Z,24.20
2022-09-05T07:00:22.219Z,22.60
2022-09-05T07:05:45.164Z,22.00
2022-09-05T07:11:11.294Z,20.40
2022-09-05T07:16:37.432Z,22.20
2022-09-05T07:21:49.108Z,23.00
2022-09-05T07:26:59.033Z,20.80
2022-09-05T07:32:05.753Z,21.60
2022-09-05T07:37:16.232Z,19.00
2022-09-05T07:42:26.414Z,21.80
2022-09-05T07:47:33.332Z,20.00
2022-09-05T07:56:49.871Z,23.40
2022-09-05T07:58:08.998Z,21.20
2022-09-05T08:03:13.733Z,23.00
2022-09-05T08:08:20.369Z,23.80
2022-09-05T08:13:46.586Z,26.60
2022-09-05T08:18:55.256Z,19.80
2022-09-05T08:24:05.602Z,22.00
2022-09-05T08:29:31.913Z,25.20
2022-09-05T08:34:44.803Z,20.00
2022-09-05T08:39:50.475Z,26.60
2022-09-05T08:46:46.029Z,23.20
2022-09-05T08:51:08.651Z,24.40
2022-09-05T08:56:20.560Z,24.80
2022-09-05T09:01:31.389Z,22.80
2022-09-05T09:07:32.346Z,24.80
2022-09-05T09:12:59.573Z,22.00
2022-09-05T09:18:13.941Z,27.00
2022-09-05T09:23:37.885Z,24.80
2022-09-05T09:28:50.863Z,21.60
2022-09-05T09:34:11.864Z,24.00
2022-09-05T09:39:37.456Z,23.60
2022-09-05T09:45:29.168Z,26.80
2022-09-05T09:50:58.741Z,24.20
2022-09-05T09:56:16.697Z,26.40
2022-09-05T10:01:37.318Z,23.80
2022-09-05T10:11:09.012Z,26.60
2022-09-05T10:13:15.500Z,24.40
2022-09-05T10:18:38.038Z,26.20
2022-09-05T10:24:06.472Z,24.40
2022-09-05T10:29:37.199Z,22.20
2022-09-05T10:35:18.357Z,26.00
2022-09-05T10:40:19.264Z,22.80
2022-09-05T10:45:38.094Z,22.20
2022-09-05T10:50:44.440Z,18.80
2022-09-05T10:56:00.173Z,21.00
2022-09-05T11:02:20.878Z,19.80
2022-09-05T11:06:50.379Z,19.80
2022-09-05T11:12:07.358Z,20.40
2022-09-05T11:17:17.713Z,17.80
2022-09-05T11:22:24.534Z,20.60
2022-09-05T11:27:34.324Z,22.20
2022-09-05T11:39:46.769Z,22.80
2022-09-05T11:40:04.534Z,21.40
2022-09-05T11:44:34.666Z,19.40
2022-09-05T11:49:58.801Z,20.80
2022-09-05T11:55:36.638Z,21.60
2022-09-05T12:00:46.226Z,19.60
2022-09-05T12:06:09.758Z,22.40
2022-09-05T12:11:26.267Z,18.40
2022-09-05T12:16:47.795Z,18.80
2022-09-05T12:22:09.068Z,19.80
2022-09-05T12:27:42.196Z,18.80
2022-09-05T12:36:01.639Z,17.80
2022-09-05T12:40:57.861Z,21.20
2022-09-05T12:44:41.053Z,22.20
2022-09-05T12:49:52.051Z,18.40
2022-09-05T12:54:59.323Z,19.60
2022-09-05T13:03:09.051Z,21.80
2022-09-05T13:05:49.289Z,20.20
2022-09-05T13:14:48.588Z,19.40
2022-09-05T13:16:24.532Z,17.60
2022-09-05T13:21:30.943Z,19.00
2022-09-05T13:26:37.917Z,20.00
2022-09-05T13:38:03.243Z,15.80
2022-09-05T13:38:13.185Z,17.00
2022-09-05T13:43:05.563Z,19.80
2022-09-05T13:48:29.263Z,21.00
2022-09-05T13:53:37.694Z,18.60
2022-09-05T13:58:51.062Z,15.80
2022-09-05T14:10:35.633Z,19.60
2022-09-05T14:15:52.309Z,16.00
2022-09-05T14:21:17.842Z,17.80
2022-09-05T14:26:32.059Z,17.00
2022-09-05T14:37:34.685Z,18.75
2022-09-05T14:37:44.560Z,17.75
2022-09-05T14:43:14.003Z,16.20
2022-09-05T14:48:50.276Z,18.00
2022-09-05T14:54:00.910Z,18.25
2022-09-05T15:02:39.477Z,16.50
2022-09-05T15:04:47.187Z,14.75
2022-09-05T15:12:19.834Z,17.75
2022-09-05T15:15:38.441Z,15.20
2022-09-05T15:20:44.016Z,15.00
2022-09-05T15:25:49.534Z,15.50
2022-09-05T15:31:04.472Z,13.50
2022-09-05T15:36:13.338Z,15.25
2022-09-05T15:41:21.051Z,17.00
2022-09-05T15:46:35.624Z,13.75
2022-09-05T15:51:45.869Z,13.50
2022-09-05T15:56:52.428Z,15.25
2022-09-05T16:02:00.350Z,17.00
2022-09-05T16:10:46.786Z,16.75
2022-09-05T16:12:34.156Z,20.80
2022-09-05T16:23:20.215Z,23.80
2022-09-05T16:23:39.361Z,19.60
2022-09-05T16:28:40.900Z,21.20
2022-09-05T16:33:46.907Z,20.00
2022-09-05T16:38:53.322Z,17.40
2022-09-05T16:44:00.141Z,21.40
2022-09-05T16:49:12.538Z,20.00
2022-09-05T16:54:24.497Z,19.40
2022-09-05T16:59:31.360Z,19.00
2022-09-05T17:05:04.741Z,17.75
2022-09-05T17:10:11.232Z,23.20
2022-09-05T17:15:17.425Z,16.25
2022-09-05T17:20:23.196Z,20.00
2022-09-05T17:29:32.173Z,19.60
2022-09-05T17:36:41.161Z,17.60
2022-09-05T17:42:06.053Z,20.20
2022-09-05T17:47:15.186Z,19.00
2022-09-05T17:52:23.638Z,20.40
2022-09-05T17:57:41.542Z,18.80
2022-09-05T18:02:54.744Z,16.20
2022-09-05T18:08:00.220Z,21.80
2022-09-05T18:13:32.681Z,17.60
2022-09-05T18:19:32.598Z,21.40
2022-09-05T18:24:07.950Z,19.40
2022-09-05T18:29:30.998Z,22.60
2022-09-05T18:35:15.638Z,20.80
2022-09-05T18:41:02.119Z,23.20
2022-09-05T18:46:13.723Z,21.40
2022-09-05T18:51:22.070Z,21.20
2022-09-05T18:56:33.370Z,23.00
2022-09-05T19:01:40.649Z,22.00
2022-09-05T19:06:47.889Z,19.80
2022-09-05T19:12:31.816Z,20.80
2022-09-05T19:17:32.626Z,23.00
2022-09-05T19:23:08.421Z,18.40
2022-09-05T19:34:25.794Z,23.60
2022-09-05T19:37:23.775Z,20.20
2022-09-05T19:41:34.694Z,20.20
2022-09-05T19:47:40.430Z,25.80
2022-09-05T19:50:01.036Z,22.00
2022-09-05T19:55:04.255Z,21.60
2022-09-05T20:00:11.482Z,25.20
2022-09-05T20:05:20.087Z,25.80
2022-09-05T20:10:29.286Z,26.40
2022-09-05T20:15:37.725Z,20.20
2022-09-05T20:20:51.717Z,22.00
2022-09-05T20:25:56.205Z,25.20
2022-09-05T20:31:03.909Z,24.40
2022-09-05T20:40:49.882Z,23.60
2022-09-05T20:43:27.433Z,22.00
2022-09-05T20:54:07.046Z,21.80
2022-09-05T20:54:22.174Z,22.00
2022-09-05T20:57:58.105Z,21.80
2022-09-05T21:03:02.571Z,22.00
2022-09-05T21:08:24.710Z,22.00
2022-09-05T21:13:29.855Z,25.60
2022-09-05T21:18:34.549Z,18.20
2022-09-05T21:23:39.169Z,21.40
2022-09-05T21:29:02.081Z,22.00
2022-09-05T21:34:06.120Z,21.40
2022-09-05T21:39:10.148Z,22.00
2022-09-05T21:47:39.701Z,20.20
2022-09-05T21:49:37.318Z,18.60
2022-09-05T21:59:13.693Z,23.00
2022-09-05T22:00:11.176Z,20.40
2022-09-05T22:05:21.778Z,20.40
2022-09-05T22:10:35.687Z,19.40
2022-09-05T22:15:48.340Z,19.00
2022-09-05T22:21:32.144Z,21.40
2022-09-05T22:26:17.919Z,22.60
2022-09-05T22:31:21.709Z,20.20
2022-09-05T22:36:26.448Z,21.60
2022-09-05T22:41:31.168Z,20.20
2022-09-05T22:46:34.105Z,19.60
2022-09-05T22:51:38.151Z,24.80
2022-09-05T22:56:40.731Z,22.60
2022-09-05T23:01:44.023Z,20.60
2022-09-05T23:06:48.498Z,22.20
2022-09-05T23:11:51.133Z,20.60
2022-09-05T23:16:53.814Z,20.20
2022-09-05T23:21:58.013Z,21.20
2022-09-05T23:27:00.800Z,21.00
2022-09-05T23:32:03.724Z,23.20
2022-09-05T23:37:09.209Z,24.60
2022-09-05T23:42:11.897Z,22.60
2022-09-05T23:47:14.559Z,18.60
2022-09-05T23:52:18.542Z,21.60
2022-09-05T23:57:23.154Z,19.80
